sensor_id;sensor_type;location;lat;lon;timestamp;P1;durP1;ratioP1;P2;durP2;ratioP2
9334;SDS011;4706;41.844;26.082;2023-11-19T00:02:21;1.40;;;1.30;;
9334;SDS011;4706;41.844;26.082;2023-11-19T00:04:47;3.90;;;1.20;;
9334;SDS011;4706;41.844;26.082;2023-11-19T00:07:12;1.50;;;1.40;;
9334;SDS011;4706;41.844;26.082;2023-11-19T00:09:39;1.45;;;1.35;;
9334;SDS011;4706;41.844;26.082;2023-11-19T00:12:05;1.70;;;1.20;;
9334;SDS011;4706;41.844;26.082;2023-11-19T00:14:31;1.30;;;1.20;;
9334;SDS011;4706;41.844;26.082;2023-11-19T00:16:57;1.33;;;1.23;;
9334;SDS011;4706;41.844;26.082;2023-11-19T00:19:23;1.40;;;1.30;;
9334;SDS011;4706;41.844;26.082;2023-11-19T00:21:49;1.20;;;1.10;;
9334;SDS011;4706;41.844;26.082;2023-11-19T00:24:14;1.15;;;1.10;;
9334;SDS011;4706;41.844;26.082;2023-11-19T00:26:42;1.33;;;1.00;;
9334;SDS011;4706;41.844;26.082;2023-11-19T00:29:07;1.95;;;1.20;;
9334;SDS011;4706;41.844;26.082;2023-11-19T00:31:33;2.65;;;1.40;;
9334;SDS011;4706;41.844;26.082;2023-11-19T00:33:59;1.30;;;1.08;;
9334;SDS011;4706;41.844;26.082;2023-11-19T00:36:25;1.33;;;1.20;;
9334;SDS011;4706;41.844;26.082;2023-11-19T00:38:51;1.38;;;1.25;;
9334;SDS011;4706;41.844;26.082;2023-11-19T00:41:19;1.58;;;1.05;;
9334;SDS011;4706;41.844;26.082;2023-11-19T00:43:45;1.27;;;1.17;;
9334;SDS011;4706;41.844;26.082;2023-11-19T00:46:11;1.80;;;1.10;;
9334;SDS011;4706;41.844;26.082;2023-11-19T00:48:36;1.38;;;1.27;;
9334;SDS011;4706;41.844;26.082;2023-11-19T00:51:02;2.50;;;1.10;;
9334;SDS011;4706;41.844;26.082;2023-11-19T00:53:29;1.10;;;1.00;;
9334;SDS011;4706;41.844;26.082;2023-11-19T00:55:55;1.15;;;1.05;;
9334;SDS011;4706;41.844;26.082;2023-11-19T00:58:20;1.23;;;1.05;;
9334;SDS011;4706;41.844;26.082;2023-11-19T01:00:46;1.17;;;1.08;;
9334;SDS011;4706;41.844;26.082;2023-11-19T01:03:12;0.90;;;0.80;;
9334;SDS011;4706;41.844;26.082;2023-11-19T01:05:37;1.05;;;0.95;;
9334;SDS011;4706;41.844;26.082;2023-11-19T01:08:04;0.88;;;0.88;;
9334;SDS011;4706;41.844;26.082;2023-11-19T01:10:30;0.88;;;0.88;;
9334;SDS011;4706;41.844;26.082;2023-11-19T01:12:56;0.93;;;0.90;;
9334;SDS011;4706;41.844;26.082;2023-11-19T01:15:22;1.75;;;0.80;;
9334;SDS011;4706;41.844;26.082;2023-11-19T01:17:48;0.60;;;0.60;;
9334;SDS011;4706;41.844;26.082;2023-11-19T01:20:14;0.70;;;0.70;;
9334;SDS011;4706;41.844;26.082;2023-11-19T01:22:39;2.47;;;0.70;;
9334;SDS011;4706;41.844;26.082;2023-11-19T01:25:06;0.73;;;0.60;;
9334;SDS011;4706;41.844;26.082;2023-11-19T01:27:32;1.60;;;0.70;;
9334;SDS011;4706;41.844;26.082;2023-11-19T01:30:00;0.60;;;0.60;;
9334;SDS011;4706;41.844;26.082;2023-11-19T01:32:28;0.68;;;0.60;;
9334;SDS011;4706;41.844;26.082;2023-11-19T01:34:54;0.50;;;0.50;;
9334;SDS011;4706;41.844;26.082;2023-11-19T01:37:20;1.05;;;0.70;;
9334;SDS011;4706;41.844;26.082;2023-11-19T01:39:45;4.40;;;0.80;;
9334;SDS011;4706;41.844;26.082;2023-11-19T01:42:11;8.40;;;0.82;;
9334;SDS011;4706;41.844;26.082;2023-11-19T01:44:40;0.85;;;0.55;;
9334;SDS011;4706;41.844;26.082;2023-11-19T01:47:06;1.38;;;0.63;;
9334;SDS011;4706;41.844;26.082;2023-11-19T01:49:33;0.50;;;0.50;;
9334;SDS011;4706;41.844;26.082;2023-11-19T01:51:59;0.85;;;0.70;;
9334;SDS011;4706;41.844;26.082;2023-11-19T01:54:25;0.50;;;0.50;;
9334;SDS011;4706;41.844;26.082;2023-11-19T01:56:52;0.60;;;0.60;;
9334;SDS011;4706;41.844;26.082;2023-11-19T01:59:21;1.35;;;0.52;;
9334;SDS011;4706;41.844;26.082;2023-11-19T02:01:52;0.70;;;0.68;;
9334;SDS011;4706;41.844;26.082;2023-11-19T02:04:20;0.70;;;0.70;;
9334;SDS011;4706;41.844;26.082;2023-11-19T02:06:46;0.50;;;0.50;;
9334;SDS011;4706;41.844;26.082;2023-11-19T02:09:13;0.70;;;0.60;;
9334;SDS011;4706;41.844;26.082;2023-11-19T02:11:39;0.90;;;0.80;;
9334;SDS011;4706;41.844;26.082;2023-11-19T02:14:05;0.70;;;0.70;;
9334;SDS011;4706;41.844;26.082;2023-11-19T02:16:31;0.70;;;0.70;;
9334;SDS011;4706;41.844;26.082;2023-11-19T02:18:57;2.35;;;0.80;;
9334;SDS011;4706;41.844;26.082;2023-11-19T02:21:23;1.23;;;0.90;;
9334;SDS011;4706;41.844;26.082;2023-11-19T02:23:48;1.30;;;0.93;;
9334;SDS011;4706;41.844;26.082;2023-11-19T02:26:33;1.15;;;1.02;;
9334;SDS011;4706;41.844;26.082;2023-11-19T02:29:05;2.10;;;0.90;;
9334;SDS011;4706;41.844;26.082;2023-11-19T02:31:31;0.70;;;0.70;;
9334;SDS011;4706;41.844;26.082;2023-11-19T02:33:57;2.40;;;0.98;;
9334;SDS011;4706;41.844;26.082;2023-11-19T02:36:25;1.08;;;0.98;;
9334;SDS011;4706;41.844;26.082;2023-11-19T02:38:50;1.63;;;0.80;;
9334;SDS011;4706;41.844;26.082;2023-11-19T02:41:16;0.73;;;0.73;;
9334;SDS011;4706;41.844;26.082;2023-11-19T02:43:41;1.05;;;1.00;;
9334;SDS011;4706;41.844;26.082;2023-11-19T02:46:07;0.80;;;0.80;;
9334;SDS011;4706;41.844;26.082;2023-11-19T02:48:35;1.10;;;1.00;;
9334;SDS011;4706;41.844;26.082;2023-11-19T02:51:02;1.08;;;1.00;;
9334;SDS011;4706;41.844;26.082;2023-11-19T02:53:28;1.48;;;1.10;;
9334;SDS011;4706;41.844;26.082;2023-11-19T02:55:54;1.25;;;1.05;;
9334;SDS011;4706;41.844;26.082;2023-11-19T02:58:27;1.02;;;1.02;;
9334;SDS011;4706;41.844;26.082;2023-11-19T03:00:54;2.50;;;1.27;;
9334;SDS011;4706;41.844;26.082;2023-11-19T03:03:25;1.13;;;1.05;;
9334;SDS011;4706;41.844;26.082;2023-11-19T03:06:04;1.27;;;1.10;;
9334;SDS011;4706;41.844;26.082;2023-11-19T03:08:30;0.85;;;0.85;;
9334;SDS011;4706;41.844;26.082;2023-11-19T03:10:56;1.77;;;1.20;;
9334;SDS011;4706;41.844;26.082;2023-11-19T03:13:21;1.20;;;1.10;;
9334;SDS011;4706;41.844;26.082;2023-11-19T03:15:47;2.35;;;1.20;;
9334;SDS011;4706;41.844;26.082;2023-11-19T03:18:12;1.58;;;1.20;;
9334;SDS011;4706;41.844;26.082;2023-11-19T03:20:38;1.20;;;1.10;;
9334;SDS011;4706;41.844;26.082;2023-11-19T03:23:03;1.20;;;1.10;;
9334;SDS011;4706;41.844;26.082;2023-11-19T03:25:29;1.30;;;1.20;;
9334;SDS011;4706;41.844;26.082;2023-11-19T03:27:59;1.55;;;1.45;;
9334;SDS011;4706;41.844;26.082;2023-11-19T03:30:26;1.17;;;1.10;;
9334;SDS011;4706;41.844;26.082;2023-11-19T03:32:52;1.20;;;1.10;;
9334;SDS011;4706;41.844;26.082;2023-11-19T03:35:17;3.05;;;1.15;;
9334;SDS011;4706;41.844;26.082;2023-11-19T03:37:43;1.50;;;1.20;;
9334;SDS011;4706;41.844;26.082;2023-11-19T03:40:09;1.40;;;1.20;;
9334;SDS011;4706;41.844;26.082;2023-11-19T03:42:35;1.13;;;1.08;;
9334;SDS011;4706;41.844;26.082;2023-11-19T03:45:01;0.90;;;0.90;;
9334;SDS011;4706;41.844;26.082;2023-11-19T03:47:29;1.15;;;0.90;;
9334;SDS011;4706;41.844;26.082;2023-11-19T03:49:54;1.25;;;1.15;;
9334;SDS011;4706;41.844;26.082;2023-11-19T03:52:20;1.20;;;1.10;;
9334;SDS011;4706;41.844;26.082;2023-11-19T03:54:45;1.27;;;1.17;;
9334;SDS011;4706;41.844;26.082;2023-11-19T03:57:14;1.17;;;1.08;;
9334;SDS011;4706;41.844;26.082;2023-11-19T03:59:40;1.17;;;1.08;;
9334;SDS011;4706;41.844;26.082;2023-11-19T04:02:06;1.50;;;1.40;;
9334;SDS011;4706;41.844;26.082;2023-11-19T04:04:32;1.17;;;1.08;;
9334;SDS011;4706;41.844;26.082;2023-11-19T04:06:58;1.23;;;1.13;;
9334;SDS011;4706;41.844;26.082;2023-11-19T04:09:26;1.33;;;1.23;;
9334;SDS011;4706;41.844;26.082;2023-11-19T04:11:51;1.25;;;1.15;;
9334;SDS011;4706;41.844;26.082;2023-11-19T04:14:17;2.42;;;1.15;;
9334;SDS011;4706;41.844;26.082;2023-11-19T04:16:43;0.90;;;0.90;;
9334;SDS011;4706;41.844;26.082;2023-11-19T04:19:10;4.30;;;1.30;;
9334;SDS011;4706;41.844;26.082;2023-11-19T04:21:35;1.92;;;1.15;;
9334;SDS011;4706;41.844;26.082;2023-11-19T04:24:01;1.38;;;1.10;;
9334;SDS011;4706;41.844;26.082;2023-11-19T04:26:26;1.58;;;1.20;;
9334;SDS011;4706;41.844;26.082;2023-11-19T04:28:52;1.20;;;1.10;;
9334;SDS011;4706;41.844;26.082;2023-11-19T04:31:17;1.33;;;1.10;;
9334;SDS011;4706;41.844;26.082;2023-11-19T04:33:43;1.30;;;1.20;;
9334;SDS011;4706;41.844;26.082;2023-11-19T04:36:12;1.33;;;1.02;;
9334;SDS011;4706;41.844;26.082;2023-11-19T04:38:39;2.28;;;1.17;;
9334;SDS011;4706;41.844;26.082;2023-11-19T04:41:05;1.10;;;1.00;;
9334;SDS011;4706;41.844;26.082;2023-11-19T04:43:34;1.70;;;1.05;;
9334;SDS011;4706;41.844;26.082;2023-11-19T04:46:00;3.13;;;1.10;;
9334;SDS011;4706;41.844;26.082;2023-11-19T04:48:28;1.30;;;1.20;;
9334;SDS011;4706;41.844;26.082;2023-11-19T04:50:54;1.20;;;1.05;;
9334;SDS011;4706;41.844;26.082;2023-11-19T04:53:19;1.20;;;1.10;;
9334;SDS011;4706;41.844;26.082;2023-11-19T04:55:45;3.70;;;1.10;;
9334;SDS011;4706;41.844;26.082;2023-11-19T04:58:10;1.05;;;1.00;;
9334;SDS011;4706;41.844;26.082;2023-11-19T05:00:36;0.98;;;0.98;;
9334;SDS011;4706;41.844;26.082;2023-11-19T05:03:02;2.17;;;0.93;;
9334;SDS011;4706;41.844;26.082;2023-11-19T05:05:27;1.27;;;1.17;;
9334;SDS011;4706;41.844;26.082;2023-11-19T05:07:53;1.85;;;1.15;;
9334;SDS011;4706;41.844;26.082;2023-11-19T05:10:19;1.70;;;1.30;;
9334;SDS011;4706;41.844;26.082;2023-11-19T05:12:45;1.27;;;1.17;;
9334;SDS011;4706;41.844;26.082;2023-11-19T05:15:10;6.68;;;2.00;;
9334;SDS011;4706;41.844;26.082;2023-11-19T05:17:37;1.05;;;1.00;;
9334;SDS011;4706;41.844;26.082;2023-11-19T05:20:03;3.53;;;1.55;;
9334;SDS011;4706;41.844;26.082;2023-11-19T05:22:29;1.63;;;1.52;;
9334;SDS011;4706;41.844;26.082;2023-11-19T05:24:54;2.10;;;1.42;;
9334;SDS011;4706;41.844;26.082;2023-11-19T05:27:21;2.00;;;1.80;;
9334;SDS011;4706;41.844;26.082;2023-11-19T05:29:47;3.15;;;1.83;;
9334;SDS011;4706;41.844;26.082;2023-11-19T05:32:15;1.80;;;1.70;;
9334;SDS011;4706;41.844;26.082;2023-11-19T05:34:41;5.50;;;4.53;;
9334;SDS011;4706;41.844;26.082;2023-11-19T05:37:06;5.85;;;4.80;;
9334;SDS011;4706;41.844;26.082;2023-11-19T05:39:32;9.90;;;7.90;;
9334;SDS011;4706;41.844;26.082;2023-11-19T05:41:58;10.38;;;7.43;;
9334;SDS011;4706;41.844;26.082;2023-11-19T05:44:24;4.80;;;3.45;;
9334;SDS011;4706;41.844;26.082;2023-11-19T05:46:49;7.60;;;4.45;;
9334;SDS011;4706;41.844;26.082;2023-11-19T05:49:15;2.90;;;2.60;;
9334;SDS011;4706;41.844;26.082;2023-11-19T05:51:40;3.90;;;3.60;;
9334;SDS011;4706;41.844;26.082;2023-11-19T05:54:06;6.80;;;6.20;;
9334;SDS011;4706;41.844;26.082;2023-11-19T05:56:33;2.70;;;2.50;;
9334;SDS011;4706;41.844;26.082;2023-11-19T05:58:59;2.80;;;2.60;;
9334;SDS011;4706;41.844;26.082;2023-11-19T06:01:32;3.00;;;2.72;;
9334;SDS011;4706;41.844;26.082;2023-11-19T06:04:01;4.40;;;4.00;;
9334;SDS011;4706;41.844;26.082;2023-11-19T06:06:28;4.63;;;3.83;;
9334;SDS011;4706;41.844;26.082;2023-11-19T06:08:53;2.50;;;2.30;;
9334;SDS011;4706;41.844;26.082;2023-11-19T06:11:20;2.95;;;2.47;;
9334;SDS011;4706;41.844;26.082;2023-11-19T06:13:46;3.10;;;2.80;;
9334;SDS011;4706;41.844;26.082;2023-11-19T06:16:16;3.80;;;3.38;;
9334;SDS011;4706;41.844;26.082;2023-11-19T06:18:41;3.20;;;2.58;;
9334;SDS011;4706;41.844;26.082;2023-11-19T06:21:08;2.20;;;2.00;;
9334;SDS011;4706;41.844;26.082;2023-11-19T06:23:34;3.15;;;2.55;;
9334;SDS011;4706;41.844;26.082;2023-11-19T06:26:00;2.30;;;2.10;;
9334;SDS011;4706;41.844;26.082;2023-11-19T06:28:25;3.80;;;2.70;;
9334;SDS011;4706;41.844;26.082;2023-11-19T06:30:51;2.63;;;2.42;;
9334;SDS011;4706;41.844;26.082;2023-11-19T06:33:16;2.50;;;2.30;;
9334;SDS011;4706;41.844;26.082;2023-11-19T06:35:42;2.58;;;2.38;;
9334;SDS011;4706;41.844;26.082;2023-11-19T06:38:07;3.08;;;2.75;;
9334;SDS011;4706;41.844;26.082;2023-11-19T06:40:33;2.50;;;2.30;;
9334;SDS011;4706;41.844;26.082;2023-11-19T06:43:00;3.13;;;2.70;;
9334;SDS011;4706;41.844;26.082;2023-11-19T06:45:28;3.00;;;2.80;;
9334;SDS011;4706;41.844;26.082;2023-11-19T06:47:53;2.85;;;2.65;;
9334;SDS011;4706;41.844;26.082;2023-11-19T06:50:18;3.22;;;2.72;;
9334;SDS011;4706;41.844;26.082;2023-11-19T06:52:44;3.28;;;3.08;;
9334;SDS011;4706;41.844;26.082;2023-11-19T06:55:10;4.03;;;3.33;;
9334;SDS011;4706;41.844;26.082;2023-11-19T06:57:36;3.17;;;2.50;;
9334;SDS011;4706;41.844;26.082;2023-11-19T07:00:02;5.00;;;3.60;;
9334;SDS011;4706;41.844;26.082;2023-11-19T07:02:30;3.72;;;3.42;;
9334;SDS011;4706;41.844;26.082;2023-11-19T07:04:56;4.88;;;4.38;;
9334;SDS011;4706;41.844;26.082;2023-11-19T07:07:22;3.85;;;3.55;;
9334;SDS011;4706;41.844;26.082;2023-11-19T07:09:48;3.75;;;3.40;;
9334;SDS011;4706;41.844;26.082;2023-11-19T07:12:13;4.82;;;4.18;;
9334;SDS011;4706;41.844;26.082;2023-11-19T07:14:39;6.45;;;5.18;;
9334;SDS011;4706;41.844;26.082;2023-11-19T07:17:07;4.00;;;3.60;;
9334;SDS011;4706;41.844;26.082;2023-11-19T07:19:34;3.40;;;3.10;;
9334;SDS011;4706;41.844;26.082;2023-11-19T07:22:01;3.20;;;2.75;;
9334;SDS011;4706;41.844;26.082;2023-11-19T07:24:27;3.47;;;3.17;;
9334;SDS011;4706;41.844;26.082;2023-11-19T07:26:53;4.95;;;3.50;;
9334;SDS011;4706;41.844;26.082;2023-11-19T07:29:19;4.53;;;4.13;;
9334;SDS011;4706;41.844;26.082;2023-11-19T07:31:48;3.92;;;3.40;;
9334;SDS011;4706;41.844;26.082;2023-11-19T07:34:14;4.18;;;3.78;;
9334;SDS011;4706;41.844;26.082;2023-11-19T07:36:39;2.97;;;2.72;;
9334;SDS011;4706;41.844;26.082;2023-11-19T07:39:05;3.40;;;3.05;;
9334;SDS011;4706;41.844;26.082;2023-11-19T07:41:31;3.40;;;3.10;;
9334;SDS011;4706;41.844;26.082;2023-11-19T07:43:56;5.03;;;4.28;;
9334;SDS011;4706;41.844;26.082;2023-11-19T07:46:22;4.10;;;3.60;;
9334;SDS011;4706;41.844;26.082;2023-11-19T07:48:48;3.55;;;3.10;;
9334;SDS011;4706;41.844;26.082;2023-11-19T07:51:13;4.35;;;2.90;;
9334;SDS011;4706;41.844;26.082;2023-11-19T07:53:40;3.95;;;2.80;;
9334;SDS011;4706;41.844;26.082;2023-11-19T07:56:07;3.00;;;2.70;;
9334;SDS011;4706;41.844;26.082;2023-11-19T07:58:33;3.25;;;2.60;;
9334;SDS011;4706;41.844;26.082;2023-11-19T08:01:00;3.50;;;3.22;;
9334;SDS011;4706;41.844;26.082;2023-11-19T08:03:27;3.03;;;2.65;;
9334;SDS011;4706;41.844;26.082;2023-11-19T08:05:54;3.13;;;2.83;;
9334;SDS011;4706;41.844;26.082;2023-11-19T08:08:22;4.18;;;3.17;;
9334;SDS011;4706;41.844;26.082;2023-11-19T08:10:47;3.70;;;3.40;;
9334;SDS011;4706;41.844;26.082;2023-11-19T08:13:13;3.05;;;2.70;;
9334;SDS011;4706;41.844;26.082;2023-11-19T08:15:38;3.03;;;2.72;;
9334;SDS011;4706;41.844;26.082;2023-11-19T08:18:05;3.10;;;2.83;;
9334;SDS011;4706;41.844;26.082;2023-11-19T08:20:32;3.75;;;2.97;;
9334;SDS011;4706;41.844;26.082;2023-11-19T08:22:58;3.50;;;2.65;;
9334;SDS011;4706;41.844;26.082;2023-11-19T08:25:23;3.83;;;2.70;;
9334;SDS011;4706;41.844;26.082;2023-11-19T08:27:49;4.65;;;4.20;;
9334;SDS011;4706;41.844;26.082;2023-11-19T08:30:14;2.80;;;2.60;;
9334;SDS011;4706;41.844;26.082;2023-11-19T08:32:40;5.22;;;2.80;;
9334;SDS011;4706;41.844;26.082;2023-11-19T08:35:05;5.47;;;3.08;;
9334;SDS011;4706;41.844;26.082;2023-11-19T08:37:31;6.03;;;5.25;;
9334;SDS011;4706;41.844;26.082;2023-11-19T08:39:57;4.40;;;3.90;;
9334;SDS011;4706;41.844;26.082;2023-11-19T08:42:22;3.20;;;2.90;;
9334;SDS011;4706;41.844;26.082;2023-11-19T08:44:48;3.42;;;3.13;;
9334;SDS011;4706;41.844;26.082;2023-11-19T08:47:15;3.53;;;3.22;;
9334;SDS011;4706;41.844;26.082;2023-11-19T08:49:43;3.65;;;3.35;;
9334;SDS011;4706;41.844;26.082;2023-11-19T08:52:09;4.65;;;4.20;;
9334;SDS011;4706;41.844;26.082;2023-11-19T08:54:35;4.07;;;2.80;;
9334;SDS011;4706;41.844;26.082;2023-11-19T08:57:07;5.25;;;4.28;;
9334;SDS011;4706;41.844;26.082;2023-11-19T08:59:34;3.28;;;2.97;;
9334;SDS011;4706;41.844;26.082;2023-11-19T09:01:59;10.52;;;7.00;;
9334;SDS011;4706;41.844;26.082;2023-11-19T09:04:25;5.78;;;4.32;;
9334;SDS011;4706;41.844;26.082;2023-11-19T09:06:50;5.82;;;4.05;;
9334;SDS011;4706;41.844;26.082;2023-11-19T09:09:16;5.40;;;3.10;;
9334;SDS011;4706;41.844;26.082;2023-11-19T09:11:42;4.05;;;3.38;;
9334;SDS011;4706;41.844;26.082;2023-11-19T09:14:07;3.63;;;2.80;;
9334;SDS011;4706;41.844;26.082;2023-11-19T09:16:33;3.33;;;3.05;;
9334;SDS011;4706;41.844;26.082;2023-11-19T09:18:59;2.80;;;2.60;;
9334;SDS011;4706;41.844;26.082;2023-11-19T09:21:25;4.57;;;2.90;;
9334;SDS011;4706;41.844;26.082;2023-11-19T09:23:51;3.88;;;2.78;;
9334;SDS011;4706;41.844;26.082;2023-11-19T09:26:18;3.25;;;2.40;;
9334;SDS011;4706;41.844;26.082;2023-11-19T09:28:43;2.35;;;1.88;;
9334;SDS011;4706;41.844;26.082;2023-11-19T09:31:15;2.38;;;2.00;;
9334;SDS011;4706;41.844;26.082;2023-11-19T09:33:41;3.78;;;2.50;;
9334;SDS011;4706;41.844;26.082;2023-11-19T09:36:07;3.30;;;2.10;;
9334;SDS011;4706;41.844;26.082;2023-11-19T09:38:34;2.35;;;2.15;;
9334;SDS011;4706;41.844;26.082;2023-11-19T09:41:06;2.30;;;2.10;;
9334;SDS011;4706;41.844;26.082;2023-11-19T09:43:33;2.40;;;2.20;;
9334;SDS011;4706;41.844;26.082;2023-11-19T09:46:00;5.28;;;2.40;;
9334;SDS011;4706;41.844;26.082;2023-11-19T09:48:32;3.10;;;2.90;;
9334;SDS011;4706;41.844;26.082;2023-11-19T09:51:00;6.72;;;3.17;;
9334;SDS011;4706;41.844;26.082;2023-11-19T09:53:26;2.90;;;2.42;;
9334;SDS011;4706;41.844;26.082;2023-11-19T09:55:52;3.03;;;2.53;;
9334;SDS011;4706;41.844;26.082;2023-11-19T09:58:18;2.80;;;2.60;;
9334;SDS011;4706;41.844;26.082;2023-11-19T10:00:45;2.67;;;1.90;;
9334;SDS011;4706;41.844;26.082;2023-11-19T10:03:11;2.45;;;2.25;;
9334;SDS011;4706;41.844;26.082;2023-11-19T10:05:37;2.63;;;2.42;;
9334;SDS011;4706;41.844;26.082;2023-11-19T10:08:06;2.80;;;2.38;;
9334;SDS011;4706;41.844;26.082;2023-11-19T10:10:33;4.75;;;2.47;;
9334;SDS011;4706;41.844;26.082;2023-11-19T10:12:59;2.70;;;2.50;;
9334;SDS011;4706;41.844;26.082;2023-11-19T10:15:25;3.42;;;2.67;;
9334;SDS011;4706;41.844;26.082;2023-11-19T10:17:52;4.35;;;4.00;;
9334;SDS011;4706;41.844;26.082;2023-11-19T10:20:21;3.10;;;2.80;;
9334;SDS011;4706;41.844;26.082;2023-11-19T10:22:47;5.45;;;3.55;;
9334;SDS011;4706;41.844;26.082;2023-11-19T10:27:48;2.90;;;2.60;;
9334;SDS011;4706;41.844;26.082;2023-11-19T10:30:17;2.60;;;2.40;;
9334;SDS011;4706;41.844;26.082;2023-11-19T10:32:44;2.90;;;2.70;;
9334;SDS011;4706;41.844;26.082;2023-11-19T10:35:10;4.55;;;3.40;;
9334;SDS011;4706;41.844;26.082;2023-11-19T10:37:37;3.95;;;3.55;;
9334;SDS011;4706;41.844;26.082;2023-11-19T10:40:03;4.03;;;3.70;;
9334;SDS011;4706;41.844;26.082;2023-11-19T10:42:31;2.97;;;2.78;;
9334;SDS011;4706;41.844;26.082;2023-11-19T10:44:57;4.85;;;2.80;;
9334;SDS011;4706;41.844;26.082;2023-11-19T10:47:22;3.83;;;3.42;;
9334;SDS011;4706;41.844;26.082;2023-11-19T10:49:48;6.00;;;3.13;;
9334;SDS011;4706;41.844;26.082;2023-11-19T10:52:18;5.93;;;2.80;;
9334;SDS011;4706;41.844;26.082;2023-11-19T10:54:45;4.65;;;4.15;;
9334;SDS011;4706;41.844;26.082;2023-11-19T10:57:19;5.13;;;3.95;;
9334;SDS011;4706;41.844;26.082;2023-11-19T10:59:49;7.18;;;4.85;;
9334;SDS011;4706;41.844;26.082;2023-11-19T11:02:21;4.63;;;3.65;;
9334;SDS011;4706;41.844;26.082;2023-11-19T11:04:49;2.92;;;2.67;;
9334;SDS011;4706;41.844;26.082;2023-11-19T11:07:15;2.78;;;2.58;;
9334;SDS011;4706;41.844;26.082;2023-11-19T11:09:47;4.60;;;2.92;;
9334;SDS011;4706;41.844;26.082;2023-11-19T11:12:14;8.23;;;4.25;;
9334;SDS011;4706;41.844;26.082;2023-11-19T11:14:43;3.13;;;2.60;;
9334;SDS011;4706;41.844;26.082;2023-11-19T11:17:10;3.35;;;3.05;;
9334;SDS011;4706;41.844;26.082;2023-11-19T11:19:37;6.53;;;4.47;;
9334;SDS011;4706;41.844;26.082;2023-11-19T11:22:04;3.60;;;3.30;;
9334;SDS011;4706;41.844;26.082;2023-11-19T11:30:01;2.88;;;2.63;;
9334;SDS011;4706;41.844;26.082;2023-11-19T11:38:00;3.60;;;2.13;;
9334;SDS011;4706;41.844;26.082;2023-11-19T11:40:29;2.42;;;1.90;;
9334;SDS011;4706;41.844;26.082;2023-11-19T11:42:54;3.10;;;1.98;;
9334;SDS011;4706;41.844;26.082;2023-11-19T11:45:34;2.65;;;2.45;;
9334;SDS011;4706;41.844;26.082;2023-11-19T11:48:15;3.30;;;2.67;;
9334;SDS011;4706;41.844;26.082;2023-11-19T11:50:54;3.20;;;2.83;;
9334;SDS011;4706;41.844;26.082;2023-11-19T11:53:23;10.30;;;3.92;;
9334;SDS011;4706;41.844;26.082;2023-11-19T11:55:52;13.23;;;3.97;;
9334;SDS011;4706;41.844;26.082;2023-11-19T11:58:21;3.83;;;3.20;;
9334;SDS011;4706;41.844;26.082;2023-11-19T12:00:51;6.13;;;3.35;;
9334;SDS011;4706;41.844;26.082;2023-11-19T12:03:19;4.45;;;3.17;;
9334;SDS011;4706;41.844;26.082;2023-11-19T12:05:47;4.38;;;3.17;;
9334;SDS011;4706;41.844;26.082;2023-11-19T12:08:14;4.50;;;2.65;;
9334;SDS011;4706;41.844;26.082;2023-11-19T12:10:51;3.22;;;2.92;;
9334;SDS011;4706;41.844;26.082;2023-11-19T12:13:17;5.88;;;2.70;;
9334;SDS011;4706;41.844;26.082;2023-11-19T12:18:31;2.63;;;2.42;;
9334;SDS011;4706;41.844;26.082;2023-11-19T12:20:57;2.80;;;2.50;;
9334;SDS011;4706;41.844;26.082;2023-11-19T12:23:28;3.25;;;2.20;;
9334;SDS011;4706;41.844;26.082;2023-11-19T12:25:55;2.85;;;2.20;;
9334;SDS011;4706;41.844;26.082;2023-11-19T12:28:21;4.00;;;2.42;;
9334;SDS011;4706;41.844;26.082;2023-11-19T12:30:49;4.22;;;2.78;;
9334;SDS011;4706;41.844;26.082;2023-11-19T12:33:15;2.85;;;2.30;;
9334;SDS011;4706;41.844;26.082;2023-11-19T12:35:45;3.03;;;2.72;;
9334;SDS011;4706;41.844;26.082;2023-11-19T12:38:21;2.90;;;2.70;;
9334;SDS011;4706;41.844;26.082;2023-11-19T12:41:09;3.85;;;3.15;;
9334;SDS011;4706;41.844;26.082;2023-11-19T12:43:36;3.13;;;2.80;;
9334;SDS011;4706;41.844;26.082;2023-11-19T12:46:23;5.20;;;2.63;;
9334;SDS011;4706;41.844;26.082;2023-11-19T12:48:49;2.67;;;2.47;;
9334;SDS011;4706;41.844;26.082;2023-11-19T12:51:16;2.60;;;2.40;;
9334;SDS011;4706;41.844;26.082;2023-11-19T12:53:48;3.40;;;3.10;;
9334;SDS011;4706;41.844;26.082;2023-11-19T12:56:16;7.47;;;6.05;;
9334;SDS011;4706;41.844;26.082;2023-11-19T12:58:42;4.43;;;4.00;;
9334;SDS011;4706;41.844;26.082;2023-11-19T13:01:08;4.32;;;3.97;;
9334;SDS011;4706;41.844;26.082;2023-11-19T13:03:36;5.35;;;4.35;;
9334;SDS011;4706;41.844;26.082;2023-11-19T13:06:10;5.20;;;4.25;;
9334;SDS011;4706;41.844;26.082;2023-11-19T13:11:09;9.10;;;7.13;;
9334;SDS011;4706;41.844;26.082;2023-11-19T13:13:55;5.43;;;4.22;;
9334;SDS011;4706;41.844;26.082;2023-11-19T13:16:25;5.00;;;3.45;;
9334;SDS011;4706;41.844;26.082;2023-11-19T13:18:51;4.32;;;3.10;;
9334;SDS011;4706;41.844;26.082;2023-11-19T13:21:17;4.32;;;3.92;;
9334;SDS011;4706;41.844;26.082;2023-11-19T13:23:43;5.15;;;4.53;;
9334;SDS011;4706;41.844;26.082;2023-11-19T13:26:09;5.13;;;4.20;;
9334;SDS011;4706;41.844;26.082;2023-11-19T13:28:36;6.55;;;3.78;;
9334;SDS011;4706;41.844;26.082;2023-11-19T13:31:03;6.53;;;4.00;;
9334;SDS011;4706;41.844;26.082;2023-11-19T13:33:29;5.68;;;4.13;;
9334;SDS011;4706;41.844;26.082;2023-11-19T13:35:54;5.72;;;4.35;;
9334;SDS011;4706;41.844;26.082;2023-11-19T13:38:20;4.78;;;4.25;;
9334;SDS011;4706;41.844;26.082;2023-11-19T13:40:46;6.47;;;3.80;;
9334;SDS011;4706;41.844;26.082;2023-11-19T13:43:12;3.80;;;3.47;;
9334;SDS011;4706;41.844;26.082;2023-11-19T13:45:38;3.70;;;3.40;;
9334;SDS011;4706;41.844;26.082;2023-11-19T13:48:04;3.92;;;3.28;;
9334;SDS011;4706;41.844;26.082;2023-11-19T13:50:29;3.67;;;3.38;;
9334;SDS011;4706;41.844;26.082;2023-11-19T13:52:55;4.18;;;3.78;;
9334;SDS011;4706;41.844;26.082;2023-11-19T13:55:20;4.88;;;3.70;;
9334;SDS011;4706;41.844;26.082;2023-11-19T13:57:47;4.43;;;4.03;;
9334;SDS011;4706;41.844;26.082;2023-11-19T14:00:14;4.32;;;3.72;;
9334;SDS011;4706;41.844;26.082;2023-11-19T14:02:42;4.20;;;3.80;;
9334;SDS011;4706;41.844;26.082;2023-11-19T14:05:09;7.40;;;4.82;;
9334;SDS011;4706;41.844;26.082;2023-11-19T14:07:39;4.85;;;4.45;;
9334;SDS011;4706;41.844;26.082;2023-11-19T14:10:06;5.13;;;4.63;;
9334;SDS011;4706;41.844;26.082;2023-11-19T14:12:34;4.93;;;3.75;;
9334;SDS011;4706;41.844;26.082;2023-11-19T14:15:04;4.05;;;3.10;;
9334;SDS011;4706;41.844;26.082;2023-11-19T14:17:31;3.80;;;3.50;;
9334;SDS011;4706;41.844;26.082;2023-11-19T14:19:58;3.90;;;3.60;;
9334;SDS011;4706;41.844;26.082;2023-11-19T14:22:24;4.47;;;3.88;;
9334;SDS011;4706;41.844;26.082;2023-11-19T14:24:50;19.92;;;6.35;;
9334;SDS011;4706;41.844;26.082;2023-11-19T14:27:16;4.80;;;3.70;;
9334;SDS011;4706;41.844;26.082;2023-11-19T14:29:45;3.90;;;3.50;;
9334;SDS011;4706;41.844;26.082;2023-11-19T14:32:10;7.32;;;4.57;;
9334;SDS011;4706;41.844;26.082;2023-11-19T14:34:36;5.68;;;5.10;;
9334;SDS011;4706;41.844;26.082;2023-11-19T14:37:02;9.43;;;7.30;;
9334;SDS011;4706;41.844;26.082;2023-11-19T14:39:28;7.32;;;6.25;;
9334;SDS011;4706;41.844;26.082;2023-11-19T14:41:56;5.50;;;5.00;;
9334;SDS011;4706;41.844;26.082;2023-11-19T14:44:26;5.25;;;4.30;;
9334;SDS011;4706;41.844;26.082;2023-11-19T14:46:52;4.72;;;4.15;;
9334;SDS011;4706;41.844;26.082;2023-11-19T14:49:18;8.02;;;5.32;;
9334;SDS011;4706;41.844;26.082;2023-11-19T14:51:43;6.07;;;5.43;;
9334;SDS011;4706;41.844;26.082;2023-11-19T14:54:09;8.23;;;7.32;;
9334;SDS011;4706;41.844;26.082;2023-11-19T14:56:34;8.13;;;6.20;;
9334;SDS011;4706;41.844;26.082;2023-11-19T14:59:00;6.80;;;5.70;;
9334;SDS011;4706;41.844;26.082;2023-11-19T15:01:25;5.80;;;5.28;;
9334;SDS011;4706;41.844;26.082;2023-11-19T15:03:52;10.20;;;7.95;;
9334;SDS011;4706;41.844;26.082;2023-11-19T15:06:17;8.15;;;6.20;;
9334;SDS011;4706;41.844;26.082;2023-11-19T15:08:43;12.73;;;8.55;;
9334;SDS011;4706;41.844;26.082;2023-11-19T15:11:10;7.65;;;6.40;;
9334;SDS011;4706;41.844;26.082;2023-11-19T15:13:36;8.07;;;7.32;;
9334;SDS011;4706;41.844;26.082;2023-11-19T15:16:04;7.72;;;5.82;;
9334;SDS011;4706;41.844;26.082;2023-11-19T15:18:32;12.43;;;8.88;;